sensor_id;sensor_type;location;lat;lon;timestamp;temperature;humidity
61841;DHT22;47773;53.174;6.614;2023-07-20T00:00:52;16.60;99.90
61841;DHT22;47773;53.174;6.614;2023-07-20T00:03:19;16.60;99.90
61841;DHT22;47773;53.174;6.614;2023-07-20T00:05:53;16.60;99.90
61841;DHT22;47773;53.174;6.614;2023-07-20T00:08:19;16.60;99.90
61841;DHT22;47773;53.174;6.614;2023-07-20T00:10:44;16.60;99.90
61841;DHT22;47773;53.174;6.614;2023-07-20T00:13:13;16.50;99.90
61841;DHT22;47773;53.174;6.614;2023-07-20T00:15:41;16.60;99.90
61841;DHT22;47773;53.174;6.614;2023-07-20T00:18:07;16.50;99.90
61841;DHT22;47773;53.174;6.614;2023-07-20T00:20:33;16.50;99.90
61841;DHT22;47773;53.174;6.614;2023-07-20T00:22:59;16.40;99.90
61841;DHT22;47773;53.174;6.614;2023-07-20T00:25:24;16.50;99.90
61841;DHT22;47773;53.174;6.614;2023-07-20T00:27:50;16.40;99.90
61841;DHT22;47773;53.174;6.614;2023-07-20T00:30:16;16.40;99.90
61841;DHT22;47773;53.174;6.614;2023-07-20T00:32:43;16.40;99.90
61841;DHT22;47773;53.174;6.614;2023-07-20T00:35:09;16.40;99.90
61841;DHT22;47773;53.174;6.614;2023-07-20T00:37:35;16.40;99.90
61841;DHT22;47773;53.174;6.614;2023-07-20T00:40:00;16.40;99.90
61841;DHT22;47773;53.174;6.614;2023-07-20T00:42:26;16.40;99.90
61841;DHT22;47773;53.174;6.614;2023-07-20T00:44:52;16.40;99.90
61841;DHT22;47773;53.174;6.614;2023-07-20T00:47:17;16.40;99.90
61841;DHT22;47773;53.174;6.614;2023-07-20T00:49:43;16.40;99.90
61841;DHT22;47773;53.174;6.614;2023-07-20T00:52:10;16.40;99.90
61841;DHT22;47773;53.174;6.614;2023-07-20T00:54:40;16.40;99.90
61841;DHT22;47773;53.174;6.614;2023-07-20T00:57:07;16.40;99.90
61841;DHT22;47773;53.174;6.614;2023-07-20T00:59:34;16.40;99.90
61841;DHT22;47773;53.174;6.614;2023-07-20T01:02:00;16.40;99.90
61841;DHT22;47773;53.174;6.614;2023-07-20T01:04:26;16.40;99.90
61841;DHT22;47773;53.174;6.614;2023-07-20T01:07:25;16.40;99.90
61841;DHT22;47773;53.174;6.614;2023-07-20T01:10:14;16.40;99.90
61841;DHT22;47773;53.174;6.614;2023-07-20T01:12:43;16.30;99.90
61841;DHT22;47773;53.174;6.614;2023-07-20T01:15:12;16.20;99.90
61841;DHT22;47773;53.174;6.614;2023-07-20T01:17:38;16.30;99.90
61841;DHT22;47773;53.174;6.614;2023-07-20T01:20:08;16.20;99.90
61841;DHT22;47773;53.174;6.614;2023-07-20T01:26:06;16.20;99.90
61841;DHT22;47773;53.174;6.614;2023-07-20T01:28:48;16.10;99.90
61841;DHT22;47773;53.174;6.614;2023-07-20T01:31:20;16.10;99.90
61841;DHT22;47773;53.174;6.614;2023-07-20T01:33:47;16.00;99.90
61841;DHT22;47773;53.174;6.614;2023-07-20T01:36:14;16.00;99.90
61841;DHT22;47773;53.174;6.614;2023-07-20T01:38:42;16.00;99.90
61841;DHT22;47773;53.174;6.614;2023-07-20T01:41:08;16.00;99.90
61841;DHT22;47773;53.174;6.614;2023-07-20T01:43:34;16.00;99.90
61841;DHT22;47773;53.174;6.614;2023-07-20T01:46:00;15.90;99.90
61841;DHT22;47773;53.174;6.614;2023-07-20T01:48:25;15.90;99.90
61841;DHT22;47773;53.174;6.614;2023-07-20T01:50:51;15.90;99.90
61841;DHT22;47773;53.174;6.614;2023-07-20T01:53:17;15.90;99.90
61841;DHT22;47773;53.174;6.614;2023-07-20T01:55:43;15.80;99.90
61841;DHT22;47773;53.174;6.614;2023-07-20T01:58:09;15.80;99.90
61841;DHT22;47773;53.174;6.614;2023-07-20T02:00:37;15.80;99.90
61841;DHT22;47773;53.174;6.614;2023-07-20T02:03:03;15.70;99.90
61841;DHT22;47773;53.174;6.614;2023-07-20T02:05:28;15.70;99.90
61841;DHT22;47773;53.174;6.614;2023-07-20T02:07:54;15.70;99.90
61841;DHT22;47773;53.174;6.614;2023-07-20T02:10:20;15.70;99.90
61841;DHT22;47773;53.174;6.614;2023-07-20T02:12:46;15.60;99.90
61841;DHT22;47773;53.174;6.614;2023-07-20T02:15:11;15.60;99.90
61841;DHT22;47773;53.174;6.614;2023-07-20T02:17:39;15.60;99.90
61841;DHT22;47773;53.174;6.614;2023-07-20T02:20:07;15.60;99.90
61841;DHT22;47773;53.174;6.614;2023-07-20T02:22:37;15.50;99.90
61841;DHT22;47773;53.174;6.614;2023-07-20T02:25:07;15.50;99.90
61841;DHT22;47773;53.174;6.614;2023-07-20T02:27:33;15.50;99.90
61841;DHT22;47773;53.174;6.614;2023-07-20T02:29:59;15.50;99.90
61841;DHT22;47773;53.174;6.614;2023-07-20T02:32:25;15.40;99.90
61841;DHT22;47773;53.174;6.614;2023-07-20T02:34:51;15.40;99.90
61841;DHT22;47773;53.174;6.614;2023-07-20T02:37:17;15.40;99.90
61841;DHT22;47773;53.174;6.614;2023-07-20T02:39:43;15.40;99.90
61841;DHT22;47773;53.174;6.614;2023-07-20T02:42:09;15.40;99.90
61841;DHT22;47773;53.174;6.614;2023-07-20T02:44:34;15.30;99.90
61841;DHT22;47773;53.174;6.614;2023-07-20T02:47:00;15.30;99.90
61841;DHT22;47773;53.174;6.614;2023-07-20T02:49:26;15.30;99.90
61841;DHT22;47773;53.174;6.614;2023-07-20T02:51:52;15.30;99.90
61841;DHT22;47773;53.174;6.614;2023-07-20T02:54:18;15.30;99.90
61841;DHT22;47773;53.174;6.614;2023-07-20T02:56:44;15.20;99.90
61841;DHT22;47773;53.174;6.614;2023-07-20T02:59:09;15.20;99.90
61841;DHT22;47773;53.174;6.614;2023-07-20T03:01:35;15.20;99.90
61841;DHT22;47773;53.174;6.614;2023-07-20T03:04:01;15.20;99.90
61841;DHT22;47773;53.174;6.614;2023-07-20T03:06:27;15.10;99.90
61841;DHT22;47773;53.174;6.614;2023-07-20T03:08:53;15.10;99.90
61841;DHT22;47773;53.174;6.614;2023-07-20T03:11:20;15.10;99.90
61841;DHT22;47773;53.174;6.614;2023-07-20T03:13:48;15.10;99.90
61841;DHT22;47773;53.174;6.614;2023-07-20T03:16:19;15.00;99.90
61841;DHT22;47773;53.174;6.614;2023-07-20T03:18:45;15.00;99.90
61841;DHT22;47773;53.174;6.614;2023-07-20T03:21:11;15.00;99.90
61841;DHT22;47773;53.174;6.614;2023-07-20T03:23:38;15.00;99.90
61841;DHT22;47773;53.174;6.614;2023-07-20T03:26:04;14.90;99.90
61841;DHT22;47773;53.174;6.614;2023-07-20T03:28:30;14.90;99.90
61841;DHT22;47773;53.174;6.614;2023-07-20T03:30:56;14.90;99.90
61841;DHT22;47773;53.174;6.614;2023-07-20T03:33:26;14.80;99.90
61841;DHT22;47773;53.174;6.614;2023-07-20T03:35:53;14.80;99.90
61841;DHT22;47773;53.174;6.614;2023-07-20T03:38:20;14.80;99.90
61841;DHT22;47773;53.174;6.614;2023-07-20T03:43:18;14.80;99.90
61841;DHT22;47773;53.174;6.614;2023-07-20T03:45:44;14.70;99.90
61841;DHT22;47773;53.174;6.614;2023-07-20T03:48:11;14.70;99.90
61841;DHT22;47773;53.174;6.614;2023-07-20T03:50:37;14.70;99.90
61841;DHT22;47773;53.174;6.614;2023-07-20T03:53:03;14.70;99.90
61841;DHT22;47773;53.174;6.614;2023-07-20T03:55:29;14.60;99.90
61841;DHT22;47773;53.174;6.614;2023-07-20T03:57:54;14.70;99.90
61841;DHT22;47773;53.174;6.614;2023-07-20T04:00:20;14.70;99.90
61841;DHT22;47773;53.174;6.614;2023-07-20T04:02:46;14.60;99.90
61841;DHT22;47773;53.174;6.614;2023-07-20T04:05:12;14.70;99.90
61841;DHT22;47773;53.174;6.614;2023-07-20T04:07:37;14.60;99.90
61841;DHT22;47773;53.174;6.614;2023-07-20T04:10:03;14.60;99.90
61841;DHT22;47773;53.174;6.614;2023-07-20T04:12:29;14.60;99.90
61841;DHT22;47773;53.174;6.614;2023-07-20T04:14:55;14.60;99.90
61841;DHT22;47773;53.174;6.614;2023-07-20T04:17:21;14.60;99.90
61841;DHT22;47773;53.174;6.614;2023-07-20T04:19:46;14.50;99.90
61841;DHT22;47773;53.174;6.614;2023-07-20T04:22:12;14.50;99.90
61841;DHT22;47773;53.174;6.614;2023-07-20T04:24:44;14.50;99.90
61841;DHT22;47773;53.174;6.614;2023-07-20T04:27:09;14.50;99.90
61841;DHT22;47773;53.174;6.614;2023-07-20T04:29:35;14.50;99.90
61841;DHT22;47773;53.174;6.614;2023-07-20T04:32:01;14.50;99.90
61841;DHT22;47773;53.174;6.614;2023-07-20T04:34:26;14.50;99.90
61841;DHT22;47773;53.174;6.614;2023-07-20T04:36:52;14.60;99.90
61841;DHT22;47773;53.174;6.614;2023-07-20T04:39:18;14.50;99.90
61841;DHT22;47773;53.174;6.614;2023-07-20T04:41:44;14.60;99.90
61841;DHT22;47773;53.174;6.614;2023-07-20T04:44:10;14.60;99.90
61841;DHT22;47773;53.174;6.614;2023-07-20T04:46:35;14.60;99.90
61841;DHT22;47773;53.174;6.614;2023-07-20T04:49:01;14.60;99.90
61841;DHT22;47773;53.174;6.614;2023-07-20T04:51:27;14.60;99.90
61841;DHT22;47773;53.174;6.614;2023-07-20T04:53:55;14.70;99.90
61841;DHT22;47773;53.174;6.614;2023-07-20T04:56:21;14.60;99.90
61841;DHT22;47773;53.174;6.614;2023-07-20T04:58:48;14.70;99.90
61841;DHT22;47773;53.174;6.614;2023-07-20T05:01:14;14.70;99.90
61841;DHT22;47773;53.174;6.614;2023-07-20T05:03:40;14.70;99.90
61841;DHT22;47773;53.174;6.614;2023-07-20T05:06:05;14.80;99.90
61841;DHT22;47773;53.174;6.614;2023-07-20T05:08:31;14.80;99.90
61841;DHT22;47773;53.174;6.614;2023-07-20T05:10:57;14.90;99.90
61841;DHT22;47773;53.174;6.614;2023-07-20T05:13:23;15.00;99.90
61841;DHT22;47773;53.174;6.614;2023-07-20T05:15:51;15.00;99.90
61841;DHT22;47773;53.174;6.614;2023-07-20T05:18:18;15.10;99.90
61841;DHT22;47773;53.174;6.614;2023-07-20T05:20:48;15.20;99.90
61841;DHT22;47773;53.174;6.614;2023-07-20T05:23:18;15.20;99.90
61841;DHT22;47773;53.174;6.614;2023-07-20T05:25:45;15.20;99.90
61841;DHT22;47773;53.174;6.614;2023-07-20T05:28:10;15.30;99.90
61841;DHT22;47773;53.174;6.614;2023-07-20T05:30:36;15.30;99.90
61841;DHT22;47773;53.174;6.614;2023-07-20T05:33:02;15.30;99.90
61841;DHT22;47773;53.174;6.614;2023-07-20T05:35:27;15.30;99.90
61841;DHT22;47773;53.174;6.614;2023-07-20T05:37:53;15.30;99.90
61841;DHT22;47773;53.174;6.614;2023-07-20T05:40:19;15.30;99.90
61841;DHT22;47773;53.174;6.614;2023-07-20T05:42:47;15.40;99.90
61841;DHT22;47773;53.174;6.614;2023-07-20T05:45:14;15.40;99.90
61841;DHT22;47773;53.174;6.614;2023-07-20T05:47:41;15.40;99.90
61841;DHT22;47773;53.174;6.614;2023-07-20T05:50:07;15.50;99.90
61841;DHT22;47773;53.174;6.614;2023-07-20T05:52:33;15.50;99.90
61841;DHT22;47773;53.174;6.614;2023-07-20T05:54:58;15.50;99.90
61841;DHT22;47773;53.174;6.614;2023-07-20T05:57:24;15.50;99.90
61841;DHT22;47773;53.174;6.614;2023-07-20T05:59:50;15.50;99.90
61841;DHT22;47773;53.174;6.614;2023-07-20T06:02:16;15.50;99.90
61841;DHT22;47773;53.174;6.614;2023-07-20T06:04:42;15.60;99.90
61841;DHT22;47773;53.174;6.614;2023-07-20T06:07:08;15.70;99.90
61841;DHT22;47773;53.174;6.614;2023-07-20T06:09:33;15.70;99.90
61841;DHT22;47773;53.174;6.614;2023-07-20T06:11:59;15.80;99.90
61841;DHT22;47773;53.174;6.614;2023-07-20T06:14:25;15.90;99.90
61841;DHT22;47773;53.174;6.614;2023-07-20T06:16:51;15.90;99.90
61841;DHT22;47773;53.174;6.614;2023-07-20T06:19:17;16.00;99.90
61841;DHT22;47773;53.174;6.614;2023-07-20T06:21:43;16.00;99.90
61841;DHT22;47773;53.174;6.614;2023-07-20T06:24:10;16.10;99.90
61841;DHT22;47773;53.174;6.614;2023-07-20T06:26:35;16.10;99.90
61841;DHT22;47773;53.174;6.614;2023-07-20T06:29:05;16.10;99.90
61841;DHT22;47773;53.174;6.614;2023-07-20T06:31:35;16.10;99.90
61841;DHT22;47773;53.174;6.614;2023-07-20T06:34:01;16.20;99.90
61841;DHT22;47773;53.174;6.614;2023-07-20T06:36:28;16.20;99.90
61841;DHT22;47773;53.174;6.614;2023-07-20T06:38:54;16.20;99.90
61841;DHT22;47773;53.174;6.614;2023-07-20T06:41:20;16.30;99.90
61841;DHT22;47773;53.174;6.614;2023-07-20T06:43:46;16.40;99.90
61841;DHT22;47773;53.174;6.614;2023-07-20T06:46:12;16.50;99.90
61841;DHT22;47773;53.174;6.614;2023-07-20T06:48:37;16.60;99.90
61841;DHT22;47773;53.174;6.614;2023-07-20T06:51:03;16.60;99.90
61841;DHT22;47773;53.174;6.614;2023-07-20T06:53:29;16.70;99.90
61841;DHT22;47773;53.174;6.614;2023-07-20T06:55:55;16.90;99.90
61841;DHT22;47773;53.174;6.614;2023-07-20T06:58:24;17.10;99.90
61841;DHT22;47773;53.174;6.614;2023-07-20T07:00:50;17.20;99.90
61841;DHT22;47773;53.174;6.614;2023-07-20T07:03:16;17.30;99.90
61841;DHT22;47773;53.174;6.614;2023-07-20T07:05:42;17.30;99.90
61841;DHT22;47773;53.174;6.614;2023-07-20T07:08:08;17.30;99.90
61841;DHT22;47773;53.174;6.614;2023-07-20T07:10:35;17.30;99.90
61841;DHT22;47773;53.174;6.614;2023-07-20T07:13:02;17.50;99.90
61841;DHT22;47773;53.174;6.614;2023-07-20T07:15:27;17.60;99.90
61841;DHT22;47773;53.174;6.614;2023-07-20T07:17:54;17.90;99.90
61841;DHT22;47773;53.174;6.614;2023-07-20T07:20:19;18.10;99.90
61841;DHT22;47773;53.174;6.614;2023-07-20T07:22:45;18.30;99.90
61841;DHT22;47773;53.174;6.614;2023-07-20T07:25:12;18.50;99.90
61841;DHT22;47773;53.174;6.614;2023-07-20T07:27:38;18.50;99.90
61841;DHT22;47773;53.174;6.614;2023-07-20T07:30:04;18.40;99.90
61841;DHT22;47773;53.174;6.614;2023-07-20T07:32:31;18.30;99.90
61841;DHT22;47773;53.174;6.614;2023-07-20T07:34:56;18.30;99.90
61841;DHT22;47773;53.174;6.614;2023-07-20T07:37:24;18.20;99.90
61841;DHT22;47773;53.174;6.614;2023-07-20T07:39:50;18.30;99.90
61841;DHT22;47773;53.174;6.614;2023-07-20T07:42:15;18.60;99.90
61841;DHT22;47773;53.174;6.614;2023-07-20T07:44:41;18.90;99.90
61841;DHT22;47773;53.174;6.614;2023-07-20T07:47:07;19.20;99.90
61841;DHT22;47773;53.174;6.614;2023-07-20T07:49:33;19.50;99.90
61841;DHT22;47773;53.174;6.614;2023-07-20T07:51:58;20.00;99.90
61841;DHT22;47773;53.174;6.614;2023-07-20T07:54:28;20.20;99.90
61841;DHT22;47773;53.174;6.614;2023-07-20T07:56:54;20.20;99.90
61841;DHT22;47773;53.174;6.614;2023-07-20T07:59:19;20.00;99.90
61841;DHT22;47773;53.174;6.614;2023-07-20T08:01:45;19.70;99.90
61841;DHT22;47773;53.174;6.614;2023-07-20T08:04:11;19.50;99.90
61841;DHT22;47773;53.174;6.614;2023-07-20T08:06:37;19.30;99.90
61841;DHT22;47773;53.174;6.614;2023-07-20T08:09:02;19.50;99.90
61841;DHT22;47773;53.174;6.614;2023-07-20T08:11:28;19.90;99.90
61841;DHT22;47773;53.174;6.614;2023-07-20T08:13:56;20.20;99.90
61841;DHT22;47773;53.174;6.614;2023-07-20T08:16:22;20.60;99.90
61841;DHT22;47773;53.174;6.614;2023-07-20T08:18:48;21.00;99.90
61841;DHT22;47773;53.174;6.614;2023-07-20T08:21:13;21.20;99.90
61841;DHT22;47773;53.174;6.614;2023-07-20T08:23:40;21.20;99.90
61841;DHT22;47773;53.174;6.614;2023-07-20T08:26:06;21.00;99.90
61841;DHT22;47773;53.174;6.614;2023-07-20T08:28:31;20.90;99.90
61841;DHT22;47773;53.174;6.614;2023-07-20T08:30:57;20.90;99.90
61841;DHT22;47773;53.174;6.614;2023-07-20T08:33:23;21.20;99.90
61841;DHT22;47773;53.174;6.614;2023-07-20T08:35:49;21.40;99.90
61841;DHT22;47773;53.174;6.614;2023-07-20T08:38:15;21.80;99.90
61841;DHT22;47773;53.174;6.614;2023-07-20T08:40:45;22.10;99.90
61841;DHT22;47773;53.174;6.614;2023-07-20T08:43:12;22.40;99.90
61841;DHT22;47773;53.174;6.614;2023-07-20T08:45:39;22.70;99.90
61841;DHT22;47773;53.174;6.614;2023-07-20T08:48:08;23.00;99.90
61841;DHT22;47773;53.174;6.614;2023-07-20T08:50:35;23.20;99.90
61841;DHT22;47773;53.174;6.614;2023-07-20T08:53:01;23.10;99.90
61841;DHT22;47773;53.174;6.614;2023-07-20T08:55:28;23.10;99.90
61841;DHT22;47773;53.174;6.614;2023-07-20T08:57:57;23.20;99.90
61841;DHT22;47773;53.174;6.614;2023-07-20T09:00:24;23.20;99.90
61841;DHT22;47773;53.174;6.614;2023-07-20T09:02:52;23.50;99.90
61841;DHT22;47773;53.174;6.614;2023-07-20T09:05:19;23.70;99.90
61841;DHT22;47773;53.174;6.614;2023-07-20T09:07:45;23.80;99.90
61841;DHT22;47773;53.174;6.614;2023-07-20T09:10:11;24.00;99.20
61841;DHT22;47773;53.174;6.614;2023-07-20T09:12:40;24.20;97.60
61841;DHT22;47773;53.174;6.614;2023-07-20T09:15:06;24.20;97.30
61841;DHT22;47773;53.174;6.614;2023-07-20T09:17:33;24.20;96.70
61841;DHT22;47773;53.174;6.614;2023-07-20T09:20:03;24.00;96.70
61841;DHT22;47773;53.174;6.614;2023-07-20T09:22:34;23.50;96.40
61841;DHT22;47773;53.174;6.614;2023-07-20T09:25:00;23.40;96.90
61841;DHT22;47773;53.174;6.614;2023-07-20T09:27:37;23.60;96.60
61841;DHT22;47773;53.174;6.614;2023-07-20T09:30:04;24.00;95.90
61841;DHT22;47773;53.174;6.614;2023-07-20T09:32:30;24.30;96.00
61841;DHT22;47773;53.174;6.614;2023-07-20T09:34:56;24.20;95.10
61841;DHT22;47773;53.174;6.614;2023-07-20T09:37:22;24.00;94.50
61841;DHT22;47773;53.174;6.614;2023-07-20T09:39:48;23.80;94.40
61841;DHT22;47773;53.174;6.614;2023-07-20T09:42:16;23.90;94.30
61841;DHT22;47773;53.174;6.614;2023-07-20T09:44:43;24.20;93.70
61841;DHT22;47773;53.174;6.614;2023-07-20T09:47:09;24.50;93.10
61841;DHT22;47773;53.174;6.614;2023-07-20T09:49:42;24.60;93.20
61841;DHT22;47773;53.174;6.614;2023-07-20T09:52:11;24.50;92.40
61841;DHT22;47773;53.174;6.614;2023-07-20T09:54:38;24.20;92.80
61841;DHT22;47773;53.174;6.614;2023-07-20T09:57:07;24.40;92.80
61841;DHT22;47773;53.174;6.614;2023-07-20T09:59:34;24.50;92.00
61841;DHT22;47773;53.174;6.614;2023-07-20T10:02:01;24.60;91.40
61841;DHT22;47773;53.174;6.614;2023-07-20T10:04:28;24.70;90.50
61841;DHT22;47773;53.174;6.614;2023-07-20T10:06:55;24.90;90.40
61841;DHT22;47773;53.174;6.614;2023-07-20T10:09:24;25.00;89.90
61841;DHT22;47773;53.174;6.614;2023-07-20T10:11:51;25.10;89.40
61841;DHT22;47773;53.174;6.614;2023-07-20T10:14:20;25.20;89.20
61841;DHT22;47773;53.174;6.614;2023-07-20T10:16:54;25.50;87.70
61841;DHT22;47773;53.174;6.614;2023-07-20T10:19:43;25.50;83.80
61841;DHT22;47773;53.174;6.614;2023-07-20T10:22:13;25.60;84.50
61841;DHT22;47773;53.174;6.614;2023-07-20T10:24:40;25.80;84.40
61841;DHT22;47773;53.174;6.614;2023-07-20T10:27:07;25.70;84.00
61841;DHT22;47773;53.174;6.614;2023-07-20T10:29:32;25.40;84.30
61841;DHT22;47773;53.174;6.614;2023-07-20T10:31:59;24.80;85.20
61841;DHT22;47773;53.174;6.614;2023-07-20T10:34:25;24.40;86.30
61841;DHT22;47773;53.174;6.614;2023-07-20T10:36:51;24.50;86.70
61841;DHT22;47773;53.174;6.614;2023-07-20T10:39:28;24.50;86.60
61841;DHT22;47773;53.174;6.614;2023-07-20T10:42:11;24.80;85.30
61841;DHT22;47773;53.174;6.614;2023-07-20T10:44:37;25.30;85.30
61841;DHT22;47773;53.174;6.614;2023-07-20T10:47:09;25.30;84.40
61841;DHT22;47773;53.174;6.614;2023-07-20T10:49:35;24.80;83.90
61841;DHT22;47773;53.174;6.614;2023-07-20T10:52:05;24.40;85.00
61841;DHT22;47773;53.174;6.614;2023-07-20T10:56:58;24.80;85.60
61841;DHT22;47773;53.174;6.614;2023-07-20T10:59:43;25.00;84.20
61841;DHT22;47773;53.174;6.614;2023-07-20T11:02:12;25.30;82.30
61841;DHT22;47773;53.174;6.614;2023-07-20T11:04:39;25.30;81.10
61841;DHT22;47773;53.174;6.614;2023-07-20T11:07:05;24.80;80.10
61841;DHT22;47773;53.174;6.614;2023-07-20T11:09:39;24.60;80.50
61841;DHT22;47773;53.174;6.614;2023-07-20T11:12:15;24.60;80.30
61841;DHT22;47773;53.174;6.614;2023-07-20T11:14:42;24.80;81.80
61841;DHT22;47773;53.174;6.614;2023-07-20T11:17:15;25.10;82.70
61841;DHT22;47773;53.174;6.614;2023-07-20T11:19:41;25.30;81.20
61841;DHT22;47773;53.174;6.614;2023-07-20T11:22:07;25.50;79.70
61841;DHT22;47773;53.174;6.614;2023-07-20T11:24:37;25.70;80.00
61841;DHT22;47773;53.174;6.614;2023-07-20T11:27:04;26.00;80.20
61841;DHT22;47773;53.174;6.614;2023-07-20T11:29:29;26.20;79.40
61841;DHT22;47773;53.174;6.614;2023-07-20T11:31:56;26.50;79.00
61841;DHT22;47773;53.174;6.614;2023-07-20T11:34:24;26.10;78.30
61841;DHT22;47773;53.174;6.614;2023-07-20T11:36:51;26.20;78.70
61841;DHT22;47773;53.174;6.614;2023-07-20T11:39:18;26.10;77.70
61841;DHT22;47773;53.174;6.614;2023-07-20T11:41:57;25.80;76.80
61841;DHT22;47773;53.174;6.614;2023-07-20T11:44:24;25.90;76.70
61841;DHT22;47773;53.174;6.614;2023-07-20T11:49:28;26.10;77.50
61841;DHT22;47773;53.174;6.614;2023-07-20T11:51:55;26.20;77.20
61841;DHT22;47773;53.174;6.614;2023-07-20T11:54:21;26.20;76.20
61841;DHT22;47773;53.174;6.614;2023-07-20T11:56:46;26.30;75.80
61841;DHT22;47773;53.174;6.614;2023-07-20T11:59:12;26.40;75.30
61841;DHT22;47773;53.174;6.614;2023-07-20T12:01:38;26.20;74.80
61841;DHT22;47773;53.174;6.614;2023-07-20T12:04:04;26.40;75.30
61841;DHT22;47773;53.174;6.614;2023-07-20T12:06:30;26.00;74.40
61841;DHT22;47773;53.174;6.614;2023-07-20T12:08:59;25.50;74.50
61841;DHT22;47773;53.174;6.614;2023-07-20T12:13:58;24.30;75.20
61841;DHT22;47773;53.174;6.614;2023-07-20T12:16:27;24.00;76.70
61841;DHT22;47773;53.174;6.614;2023-07-20T12:21:26;23.50;77.50
61841;DHT22;47773;53.174;6.614;2023-07-20T12:23:51;23.30;78.20
61841;DHT22;47773;53.174;6.614;2023-07-20T12:26:17;23.20;78.60
61841;DHT22;47773;53.174;6.614;2023-07-20T12:28:43;23.10;78.60
61841;DHT22;47773;53.174;6.614;2023-07-20T12:31:09;23.00;79.00
61841;DHT22;47773;53.174;6.614;2023-07-20T12:33:39;22.90;79.70
61841;DHT22;47773;53.174;6.614;2023-07-20T12:36:05;23.00;80.20
61841;DHT22;47773;53.174;6.614;2023-07-20T12:38:31;23.10;80.40
61841;DHT22;47773;53.174;6.614;2023-07-20T12:40:57;23.10;80.00
61841;DHT22;47773;53.174;6.614;2023-07-20T12:43:24;23.10;79.90
61841;DHT22;47773;53.174;6.614;2023-07-20T12:45:50;23.20;80.70
61841;DHT22;47773;53.174;6.614;2023-07-20T12:48:15;23.30;80.20
61841;DHT22;47773;53.174;6.614;2023-07-20T12:50:41;23.30;80.60
61841;DHT22;47773;53.174;6.614;2023-07-20T12:53:07;23.10;80.80
61841;DHT22;47773;53.174;6.614;2023-07-20T12:55:33;22.90;81.40
61841;DHT22;47773;53.174;6.614;2023-07-20T12:57:59;22.50;82.30
61841;DHT22;47773;53.174;6.614;2023-07-20T13:00:24;22.30;84.80
61841;DHT22;47773;53.174;6.614;2023-07-20T13:02:51;22.10;87.50
61841;DHT22;47773;53.174;6.614;2023-07-20T13:05:17;21.90;90.30
61841;DHT22;47773;53.174;6.614;2023-07-20T13:07:42;21.70;91.70
61841;DHT22;47773;53.174;6.614;2023-07-20T13:10:09;21.70;93.30
61841;DHT22;47773;53.174;6.614;2023-07-20T13:12:36;21.60;94.70
61841;DHT22;47773;53.174;6.614;2023-07-20T13:15:06;21.70;95.20
61841;DHT22;47773;53.174;6.614;2023-07-20T13:17:36;22.00;96.30
61841;DHT22;47773;53.174;6.614;2023-07-20T13:20:03;22.20;96.20
61841;DHT22;47773;53.174;6.614;2023-07-20T13:22:30;22.40;95.00
61841;DHT22;47773;53.174;6.614;2023-07-20T13:24:56;22.50;93.70
61841;DHT22;47773;53.174;6.614;2023-07-20T13:27:22;22.50;92.90
61841;DHT22;47773;53.174;6.614;2023-07-20T13:29:47;22.40;92.60
61841;DHT22;47773;53.174;6.614;2023-07-20T13:32:14;22.30;92.10
61841;DHT22;47773;53.174;6.614;2023-07-20T13:34:40;22.30;91.90
61841;DHT22;47773;53.174;6.614;2023-07-20T13:37:06;22.30;91.70
61841;DHT22;47773;53.174;6.614;2023-07-20T13:39:32;22.40;91.70
61841;DHT22;47773;53.174;6.614;2023-07-20T13:41:58;22.60;91.80
61841;DHT22;47773;53.174;6.614;2023-07-20T13:44:23;22.70;91.80
61841;DHT22;47773;53.174;6.614;2023-07-20T13:46:50;22.70;91.90
61841;DHT22;47773;53.174;6.614;2023-07-20T13:49:16;22.60;92.20
61841;DHT22;47773;53.174;6.614;2023-07-20T13:51:42;22.80;92.40
61841;DHT22;47773;53.174;6.614;2023-07-20T13:54:08;22.80;92.30
61841;DHT22;47773;53.174;6.614;2023-07-20T13:56:34;22.90;92.30
61841;DHT22;47773;53.174;6.614;2023-07-20T13:59:00;22.80;91.70
61841;DHT22;47773;53.174;6.614;2023-07-20T14:01:26;22.80;91.60
61841;DHT22;47773;53.174;6.614;2023-07-20T14:03:55;22.90;91.40
61841;DHT22;47773;53.174;6.614;2023-07-20T14:06:21;23.00;91.00
61841;DHT22;47773;53.174;6.614;2023-07-20T14:08:47;23.00;90.80
61841;DHT22;47773;53.174;6.614;2023-07-20T14:11:14;22.90;90.50
61841;DHT22;47773;53.174;6.614;2023-07-20T14:13:40;23.00;90.10
61841;DHT22;47773;53.174;6.614;2023-07-20T14:16:06;23.00;89.90
61841;DHT22;47773;53.174;6.614;2023-07-20T14:18:31;23.00;89.70
61841;DHT22;47773;53.174;6.614;2023-07-20T14:20:57;22.90;89.20
61841;DHT22;47773;53.174;6.614;2023-07-20T14:23:23;22.80;90.00
61841;DHT22;47773;53.174;6.614;2023-07-20T14:25:49;22.70;90.00
61841;DHT22;47773;53.174;6.614;2023-07-20T14:28:15;22.60;90.00
61841;DHT22;47773;53.174;6.614;2023-07-20T14:30:41;22.60;90.20
61841;DHT22;47773;53.174;6.614;2023-07-20T14:33:07;22.70;90.30
61841;DHT22;47773;53.174;6.614;2023-07-20T14:35:33;22.70;90.10
61841;DHT22;47773;53.174;6.614;2023-07-20T14:38:00;22.90;89.50
61841;DHT22;47773;53.174;6.614;2023-07-20T14:40:26;22.90;89.20
61841;DHT22;47773;53.174;6.614;2023-07-20T14:42:51;22.90;88.70
61841;DHT22;47773;53.174;6.614;2023-07-20T14:45:18;23.00;88.60
61841;DHT22;47773;53.174;6.614;2023-07-20T14:47:44;23.00;88.20
61841;DHT22;47773;53.174;6.614;2023-07-20T14:50:11;23.10;87.90
61841;DHT22;47773;53.174;6.614;2023-07-20T14:52:37;23.00;87.70
61841;DHT22;47773;53.174;6.614;2023-07-20T14:55:03;22.90;87.30
61841;DHT22;47773;53.174;6.614;2023-07-20T14:57:30;22.90;87.80
61841;DHT22;47773;53.174;6.614;2023-07-20T14:59:55;22.80;88.20
61841;DHT22;47773;53.174;6.614;2023-07-20T15:02:21;22.70;88.10
61841;DHT22;47773;53.174;6.614;2023-07-20T15:04:51;22.70;87.80
61841;DHT22;47773;53.174;6.614;2023-07-20T15:07:18;22.50;88.00
61841;DHT22;47773;53.174;6.614;2023-07-20T15:09:44;22.50;88.70
61841;DHT22;47773;53.174;6.614;2023-07-20T15:12:10;22.50;89.30
61841;DHT22;47773;53.174;6.614;2023-07-20T15:14:39;22.40;89.80
61841;DHT22;47773;53.174;6.614;2023-07-20T15:17:05;22.40;90.10
61841;DHT22;47773;53.174;6.614;2023-07-20T15:19:31;22.30;90.00
61841;DHT22;47773;53.174;6.614;2023-07-20T15:21:56;22.40;90.30
61841;DHT22;47773;53.174;6.614;2023-07-20T15:24:22;22.50;90.30
61841;DHT22;47773;53.174;6.614;2023-07-20T15:26:48;22.40;90.10
61841;DHT22;47773;53.174;6.614;2023-07-20T15:29:13;22.40;90.30
61841;DHT22;47773;53.174;6.614;2023-07-20T15:31:39;22.30;90.30
61841;DHT22;47773;53.174;6.614;2023-07-20T15:34:05;22.40;90.30
61841;DHT22;47773;53.174;6.614;2023-07-20T15:36:31;22.50;90.00
61841;DHT22;47773;53.174;6.614;2023-07-20T15:38:56;22.40;89.70
61841;DHT22;47773;53.174;6.614;2023-07-20T15:41:22;22.30;90.10
61841;DHT22;47773;53.174;6.614;2023-07-20T15:43:48;22.30;90.00